Time;durP1;ratioP1;P1;durP2;ratioP2;P2;SDS_P1;SDS_P2;PMS_P1;PMS_P2;Temp;Humidity;BMP_temperature;BMP_pressure;BME280_temperature;BME280_humidity;BME280_pressure;Samples;Min_cycle;Max_cycle;Signal;HPM_P1;HPM_P2
2022/10/29 05:10:00;;;;;;;;;;;21.50;99.90;;;;;;5092970;23;19984;-81
2022/10/29 05:12:26;;;;;;;;;;;21.50;99.90;;;;;;4978156;28;19952;-81
2022/10/29 05:14:53;;;;;;;;;;;21.60;99.90;;;;;;4978631;28;19926;-81
2022/10/29 05:17:20;;;;;;;;;;;21.50;99.90;;;;;;4978647;28;19949;-81
2022/10/29 05:19:46;;;;;;;;;;;21.50;99.90;;;;;;4978625;28;19926;-81
2022/10/29 05:22:13;;;;;;;;;;;21.50;99.90;;;;;;4979274;28;19926;-81
2022/10/29 05:24:39;;;;;;;;;;;21.50;99.90;;;;;;4978436;28;19937;-81
2022/10/29 05:27:07;;;;;;;;;;;21.50;99.90;;;;;;4978471;28;19930;-81
2022/10/29 05:29:34;;;;;;;;;;;21.50;99.90;;;;;;4978510;28;19926;-81
2022/10/29 05:32:00;;;;;;;;;;;21.50;99.90;;;;;;4978647;28;19926;-81
2022/10/29 05:34:27;;;;;;;;;;;21.50;99.90;;;;;;4978541;28;19926;-81
2022/10/29 05:36:53;;;;;;;;;;;21.50;99.90;;;;;;4978712;28;19933;-81
2022/10/29 05:39:20;;;;;;;;;;;21.60;99.90;;;;;;4977636;28;20302;-81
2022/10/29 05:41:46;;;;;;;;;;;21.50;99.90;;;;;;4977983;28;19926;-81
2022/10/29 05:44:14;;;;;;;;;;;21.50;99.90;;;;;;4978428;28;19926;-81
2022/10/29 05:46:41;;;;;;;;;;;21.50;99.90;;;;;;4978412;28;19926;-80
2022/10/29 05:49:07;;;;;;;;;;;21.50;99.90;;;;;;4978193;28;19933;-80
2022/10/29 05:51:34;;;;;;;;;;;21.50;99.90;;;;;;4978001;28;19926;-80
2022/10/29 05:54:00;;;;;;;;;;;21.50;99.90;;;;;;4978470;28;19933;-81
2022/10/29 05:56:27;;;;;;;;;;;21.50;99.90;;;;;;4977566;28;19927;-81
2022/10/29 05:58:53;;;;;;;;;;;21.50;99.90;;;;;;4977639;28;19926;-81
2022/10/29 06:01:21;;;;;;;;;;;21.60;99.90;;;;;;4978281;28;20333;-81
2022/10/29 06:03:48;;;;;;;;;;;21.50;99.90;;;;;;4977905;28;19926;-81
2022/10/29 06:06:14;;;;;;;;;;;21.50;99.90;;;;;;4978176;28;19926;-81
2022/10/29 06:08:41;;;;;;;;;;;21.50;99.90;;;;;;4978074;28;19926;-81
2022/10/29 06:11:08;;;;;;;;;;;21.50;99.90;;;;;;4977817;28;19949;-81
2022/10/29 06:13:34;;;;;;;;;;;21.50;99.90;;;;;;4978986;28;19930;-83
2022/10/29 06:16:01;;;;;;;;;;;21.50;99.90;;;;;;4978372;28;19927;-83
2022/10/29 06:18:29;;;;;;;;;;;21.50;99.90;;;;;;4978907;28;19926;-83
2022/10/29 06:20:57;;;;;;;;;;;21.50;99.90;;;;;;4979965;28;19933;-84
2022/10/29 06:23:24;;;;;;;;;;;21.50;99.90;;;;;;4979487;28;19926;-84
2022/10/29 06:25:50;;;;;;;;;;;21.50;99.90;;;;;;4978802;28;19926;-84
2022/10/29 06:28:17;;;;;;;;;;;21.50;99.90;;;;;;4979232;28;19926;-84
2022/10/29 06:30:46;;;;;;;;;;;21.50;99.90;;;;;;4979896;28;20025;-84
2022/10/29 06:33:12;;;;;;;;;;;21.50;99.90;;;;;;4980202;28;19933;-84
2022/10/29 06:35:40;;;;;;;;;;;21.50;99.90;;;;;;4981048;28;19926;-84
2022/10/29 06:38:07;;;;;;;;;;;21.50;99.90;;;;;;4980273;28;19934;-84
2022/10/29 06:40:33;;;;;;;;;;;21.50;99.90;;;;;;4980583;28;19933;-84
2022/10/29 06:43:00;;;;;;;;;;;21.50;99.90;;;;;;4980518;28;19937;-82
2022/10/29 06:45:26;;;;;;;;;;;21.50;99.90;;;;;;4977835;28;19930;-82
2022/10/29 06:47:53;;;;;;;;;;;21.50;99.90;;;;;;4977877;28;19926;-83
2022/10/29 06:50:20;;;;;;;;;;;21.50;99.90;;;;;;4977542;28;19937;-82
2022/10/29 06:52:54;;;;;;;;;;;21.50;99.90;;;;;;4977626;28;19926;-82
2022/10/29 06:55:21;;;;;;;;;;;21.50;99.90;;;;;;4980913;28;20378;-82
2022/10/29 06:57:47;;;;;;;;;;;21.50;99.90;;;;;;4981091;28;19926;-82
2022/10/29 07:00:14;;;;;;;;;;;21.50;99.90;;;;;;4980952;28;20385;-82
2022/10/29 07:02:41;;;;;;;;;;;21.50;99.90;;;;;;4982093;28;19933;-83
2022/10/29 07:05:07;;;;;;;;;;;21.50;99.90;;;;;;4981490;28;19926;-82
2022/10/29 07:07:34;;;;;;;;;;;21.50;99.90;;;;;;4981716;28;19926;-83
2022/10/29 07:10:02;;;;;;;;;;;21.50;99.90;;;;;;4981588;28;19926;-82
2022/10/29 07:12:28;;;;;;;;;;;21.50;99.90;;;;;;4980523;28;19925;-82
2022/10/29 07:14:55;;;;;;;;;;;21.50;99.90;;;;;;4981747;28;19926;-83
2022/10/29 07:17:22;;;;;;;;;;;21.50;99.90;;;;;;4981825;28;19926;-82
2022/10/29 07:19:48;;;;;;;;;;;21.50;99.90;;;;;;4981654;28;19926;-83
2022/10/29 07:22:15;;;;;;;;;;;21.60;99.90;;;;;;4983795;28;20305;-83
2022/10/29 07:24:42;;;;;;;;;;;21.50;99.90;;;;;;4983090;28;19926;-83
2022/10/29 07:27:10;;;;;;;;;;;21.40;99.90;;;;;;4982205;28;19949;-83
2022/10/29 07:29:36;;;;;;;;;;;21.60;99.90;;;;;;4981954;28;19926;-84
2022/10/29 07:32:03;;;;;;;;;;;21.40;99.90;;;;;;4981868;28;19926;-82
2022/10/29 07:34:29;;;;;;;;;;;21.40;99.90;;;;;;4981797;28;20385;-80
2022/10/29 07:36:56;;;;;;;;;;;21.40;99.90;;;;;;4979950;28;19926;-81
2022/10/29 07:39:23;;;;;;;;;;;21.40;99.90;;;;;;4980998;28;19926;-82
2022/10/29 07:41:49;;;;;;;;;;;21.40;99.90;;;;;;4981714;28;19949;-84
2022/10/29 07:44:17;;;;;;;;;;;21.40;99.90;;;;;;4981999;28;19972;-83
2022/10/29 07:46:44;;;;;;;;;;;21.40;99.90;;;;;;4982732;28;19926;-85
2022/10/29 07:49:10;;;;;;;;;;;21.60;99.90;;;;;;4980652;28;20393;-83
2022/10/29 07:51:37;;;;;;;;;;;21.60;99.90;;;;;;4981992;28;19926;-82
2022/10/29 07:54:04;;;;;;;;;;;21.40;99.90;;;;;;4980552;28;19926;-82
2022/10/29 07:56:30;;;;;;;;;;;21.40;99.90;;;;;;4980413;28;19938;-84
2022/10/29 07:58:57;;;;;;;;;;;21.50;99.90;;;;;;4981231;28;19934;-83
2022/10/29 08:01:25;;;;;;;;;;;21.40;99.90;;;;;;4981194;28;20386;-88
2022/10/29 08:03:52;;;;;;;;;;;21.40;99.90;;;;;;4977380;28;20345;-87
2022/10/29 08:06:18;;;;;;;;;;;21.40;99.90;;;;;;4977526;28;19937;-86
2022/10/29 08:08:45;;;;;;;;;;;21.40;99.90;;;;;;4978028;28;19926;-86
2022/10/29 08:11:12;;;;;;;;;;;21.40;99.90;;;;;;4977897;28;19926;-86
2022/10/29 08:13:38;;;;;;;;;;;21.40;99.90;;;;;;4977056;28;19926;-86
2022/10/29 08:16:05;;;;;;;;;;;21.40;99.90;;;;;;4976960;28;19999;-86
2022/10/29 08:18:33;;;;;;;;;;;21.40;99.90;;;;;;4976844;28;19933;-86
2022/10/29 08:21:02;;;;;;;;;;;21.40;99.90;;;;;;4976506;28;20386;-86
2022/10/29 08:23:29;;;;;;;;;;;22.10;99.90;;;;;;4976496;28;19926;-86
2022/10/29 08:25:57;;;;;;;;;;;21.40;99.90;;;;;;4976720;28;19933;-86
2022/10/29 08:28:24;;;;;;;;;;;21.30;99.90;;;;;;4976509;28;19955;-86
2022/10/29 08:30:50;;;;;;;;;;;21.80;99.90;;;;;;4976725;28;19930;-86
2022/10/29 08:33:17;;;;;;;;;;;22.10;99.90;;;;;;4976266;28;20421;-87
2022/10/29 08:35:45;;;;;;;;;;;21.40;99.90;;;;;;4976244;28;19959;-87
2022/10/29 08:38:11;;;;;;;;;;;21.30;99.90;;;;;;4976772;28;19926;-87
2022/10/29 08:40:44;;;;;;;;;;;22.00;99.90;;;;;;4976224;28;19933;-86
2022/10/29 08:43:31;;;;;;;;;;;21.40;99.90;;;;;;4976915;28;19930;-86
2022/10/29 08:45:58;;;;;;;;;;;21.40;99.90;;;;;;4971709;28;19926;-86
2022/10/29 08:48:28;;;;;;;;;;;21.40;99.90;;;;;;4976151;28;19926;-86
2022/10/29 08:50:59;;;;;;;;;;;21.40;99.90;;;;;;4975997;28;19926;-86
2022/10/29 08:53:31;;;;;;;;;;;21.40;99.90;;;;;;4976347;28;19933;-86
2022/10/29 08:55:58;;;;;;;;;;;21.70;99.90;;;;;;4976232;28;19933;-86
2022/10/29 08:58:30;;;;;;;;;;;21.40;99.90;;;;;;4976024;28;20305;-86
2022/10/29 09:00:58;;;;;;;;;;;21.20;99.90;;;;;;4976169;28;19933;-86
2022/10/29 09:03:27;;;;;;;;;;;21.40;99.90;;;;;;4975837;28;20346;-86
2022/10/29 09:05:57;;;;;;;;;;;21.40;99.90;;;;;;4976067;28;19961;-86
2022/10/29 09:08:31;;;;;;;;;;;21.40;99.90;;;;;;4975572;28;20370;-86
2022/10/29 09:11:03;;;;;;;;;;;21.40;99.90;;;;;;4975600;28;19926;-86
2022/10/29 09:13:38;;;;;;;;;;;21.60;99.90;;;;;;4976034;28;19926;-86
2022/10/29 09:16:22;;;;;;;;;;;21.60;99.90;;;;;;4975202;28;19926;-86
2022/10/29 09:19:06;;;;;;;;;;;21.40;99.90;;;;;;4975359;28;19933;-86
2022/10/29 09:21:33;;;;;;;;;;;21.40;99.90;;;;;;4975864;28;19926;-86
2022/10/29 09:24:11;;;;;;;;;;;21.40;99.90;;;;;;4975394;28;20514;-86
2022/10/29 09:26:42;;;;;;;;;;;21.40;99.90;;;;;;4975731;28;19949;-86
2022/10/29 09:29:26;;;;;;;;;;;21.40;99.90;;;;;;4975845;28;19949;-86
2022/10/29 09:31:55;;;;;;;;;;;21.40;99.90;;;;;;4975673;28;20310;-86
2022/10/29 09:34:25;;;;;;;;;;;21.60;99.90;;;;;;4975621;28;19949;-86
2022/10/29 09:36:52;;;;;;;;;;;21.40;99.90;;;;;;4975334;28;19933;-86
2022/10/29 09:39:25;;;;;;;;;;;21.60;99.90;;;;;;4975348;28;19937;-86
2022/10/29 09:41:53;;;;;;;;;;;21.40;99.90;;;;;;4975515;28;19934;-86
2022/10/29 09:44:22;;;;;;;;;;;21.40;99.90;;;;;;4975229;28;19926;-86
2022/10/29 09:46:53;;;;;;;;;;;21.80;99.90;;;;;;4975471;28;19988;-86
2022/10/29 09:49:29;;;;;;;;;;;22.70;99.90;;;;;;4975004;28;19933;-86
2022/10/29 09:51:58;;;;;;;;;;;21.20;99.90;;;;;;4975493;28;19926;-86
2022/10/29 09:54:27;;;;;;;;;;;21.50;99.90;;;;;;4975475;28;19930;-86
2022/10/29 09:56:54;;;;;;;;;;;21.40;99.90;;;;;;4975046;28;19933;-86
2022/10/29 09:59:24;;;;;;;;;;;21.40;99.90;;;;;;4975283;28;20435;-86
2022/10/29 10:01:51;;;;;;;;;;;21.50;99.90;;;;;;4975207;28;19930;-87
2022/10/29 10:04:21;;;;;;;;;;;21.40;99.90;;;;;;4975155;28;19926;-86
2022/10/29 10:07:01;;;;;;;;;;;21.50;99.90;;;;;;4975205;28;20271;-87
2022/10/29 10:09:29;;;;;;;;;;;21.40;99.90;;;;;;4974804;28;20403;-86
2022/10/29 10:11:57;;;;;;;;;;;21.40;99.90;;;;;;4974866;28;19926;-86
2022/10/29 10:14:25;;;;;;;;;;;21.40;99.90;;;;;;4975128;28;20325;-86
2022/10/29 10:16:56;;;;;;;;;;;21.40;99.90;;;;;;4975147;28;19977;-86
2022/10/29 10:19:24;;;;;;;;;;;21.40;99.90;;;;;;4975126;28;19930;-86
2022/10/29 10:21:59;;;;;;;;;;;21.40;99.90;;;;;;4974900;28;20405;-86
2022/10/29 10:24:31;;;;;;;;;;;21.40;99.90;;;;;;4975090;28;19933;-86
2022/10/29 10:26:57;;;;;;;;;;;21.40;99.90;;;;;;4975109;28;19980;-86
2022/10/29 10:29:25;;;;;;;;;;;21.40;99.90;;;;;;4976925;28;19926;-87
2022/10/29 10:32:08;;;;;;;;;;;22.40;99.90;;;;;;4978823;28;19930;-87
2022/10/29 10:34:36;;;;;;;;;;;21.40;99.90;;;;;;4978835;28;19926;-86
2022/10/29 10:37:03;;;;;;;;;;;22.30;99.90;;;;;;4978776;28;19933;-86
2022/10/29 10:39:34;;;;;;;;;;;21.40;99.90;;;;;;4978359;28;19926;-86
2022/10/29 10:42:03;;;;;;;;;;;21.40;99.90;;;;;;4978669;28;19933;-86
2022/10/29 10:44:30;;;;;;;;;;;22.00;99.90;;;;;;4978376;28;20305;-86
2022/10/29 10:46:59;;;;;;;;;;;21.40;99.90;;;;;;4978472;28;19926;-86
2022/10/29 10:49:30;;;;;;;;;;;21.40;99.90;;;;;;4978178;28;19926;-86
2022/10/29 10:51:58;;;;;;;;;;;21.40;99.90;;;;;;4978455;28;20293;-86
2022/10/29 10:54:29;;;;;;;;;;;21.40;99.90;;;;;;4978090;28;20408;-86
2022/10/29 10:56:59;;;;;;;;;;;21.40;99.90;;;;;;4978148;28;19998;-86
2022/10/29 10:59:29;;;;;;;;;;;22.30;99.90;;;;;;4978050;28;20392;-86
2022/10/29 11:01:59;;;;;;;;;;;21.40;99.90;;;;;;4978277;28;19926;-86
2022/10/29 11:04:27;;;;;;;;;;;21.40;99.90;;;;;;4979354;28;20029;-87
2022/10/29 11:06:59;;;;;;;;;;;21.40;99.90;;;;;;4978210;28;19926;-86
2022/10/29 11:09:28;;;;;;;;;;;21.40;99.90;;;;;;4978031;28;19933;-86
2022/10/29 11:11:59;;;;;;;;;;;21.40;99.90;;;;;;4977699;28;20282;-86
2022/10/29 11:14:30;;;;;;;;;;;21.40;99.90;;;;;;4977863;28;20370;-86
2022/10/29 11:16:58;;;;;;;;;;;21.60;99.90;;;;;;4978902;28;19933;-86
2022/10/29 11:19:27;;;;;;;;;;;21.50;99.90;;;;;;4977908;28;19933;-86
2022/10/29 11:21:57;;;;;;;;;;;21.30;99.90;;;;;;4977653;28;20389;-86
2022/10/29 11:24:26;;;;;;;;;;;21.40;99.90;;;;;;4978190;28;19930;-87
2022/10/29 11:26:55;;;;;;;;;;;21.40;99.90;;;;;;4977801;28;19930;-87
2022/10/29 11:29:24;;;;;;;;;;;21.40;99.90;;;;;;4977410;28;20366;-87
2022/10/29 11:31:56;;;;;;;;;;;22.20;99.90;;;;;;4977724;28;19933;-87
2022/10/29 11:34:25;;;;;;;;;;;22.30;99.90;;;;;;4977745;28;19926;-87
2022/10/29 11:36:54;;;;;;;;;;;21.10;99.90;;;;;;4977695;28;19945;-87
2022/10/29 11:39:23;;;;;;;;;;;21.40;99.90;;;;;;4977005;28;19926;-87
2022/10/29 11:41:52;;;;;;;;;;;21.40;99.90;;;;;;4977318;28;19926;-87
2022/10/29 11:44:20;;;;;;;;;;;21.20;99.90;;;;;;4977379;28;20405;-87
2022/10/29 11:46:54;;;;;;;;;;;21.40;99.90;;;;;;4977403;28;19930;-87
2022/10/29 11:49:29;;;;;;;;;;;21.40;99.90;;;;;;4977083;28;20404;-87
2022/10/29 11:52:00;;;;;;;;;;;21.40;99.90;;;;;;4977421;28;19926;-87
2022/10/29 11:54:36;;;;;;;;;;;21.40;99.90;;;;;;4977343;28;19933;-87
2022/10/29 11:57:04;;;;;;;;;;;21.40;99.90;;;;;;4977425;28;19997;-87
2022/10/29 11:59:37;;;;;;;;;;;21.40;99.90;;;;;;4976884;28;20378;-87
2022/10/29 12:02:07;;;;;;;;;;;21.40;99.90;;;;;;4977228;28;19926;-87
2022/10/29 12:04:36;;;;;;;;;;;22.30;99.90;;;;;;4977173;28;19933;-87
2022/10/29 12:07:13;;;;;;;;;;;21.40;99.90;;;;;;4977155;28;20310;-87
2022/10/29 12:09:56;;;;;;;;;;;21.40;99.90;;;;;;4976966;28;19934;-87
2022/10/29 12:12:25;;;;;;;;;;;21.40;99.90;;;;;;4976693;28;19930;-87
2022/10/29 12:14:56;;;;;;;;;;;21.40;99.90;;;;;;4977000;28;19973;-87
2022/10/29 12:17:26;;;;;;;;;;;21.50;99.90;;;;;;4976903;28;19930;-87
2022/10/29 12:20:00;;;;;;;;;;;22.60;99.90;;;;;;4976885;28;20382;-87
2022/10/29 12:22:32;;;;;;;;;;;21.40;99.90;;;;;;4976918;28;19934;-87
2022/10/29 12:25:04;;;;;;;;;;;21.40;99.90;;;;;;4976774;28;19949;-87
2022/10/29 12:27:34;;;;;;;;;;;21.50;99.90;;;;;;4976535;28;19927;-87
2022/10/29 12:30:02;;;;;;;;;;;22.30;99.90;;;;;;4977331;28;19926;-87
2022/10/29 12:32:31;;;;;;;;;;;20.80;99.90;;;;;;4976587;28;19933;-87
2022/10/29 12:35:02;;;;;;;;;;;21.50;99.90;;;;;;4976389;28;20401;-87
2022/10/29 12:37:35;;;;;;;;;;;21.50;99.90;;;;;;4977076;28;19962;-87
2022/10/29 12:40:03;;;;;;;;;;;21.50;99.90;;;;;;4976534;28;20293;-87
2022/10/29 12:42:30;;;;;;;;;;;21.50;99.90;;;;;;4976539;28;19930;-87
2022/10/29 12:45:07;;;;;;;;;;;21.60;99.90;;;;;;4976540;28;19926;-87
2022/10/29 12:47:36;;;;;;;;;;;21.50;99.90;;;;;;4976206;28;19933;-87
2022/10/29 12:50:11;;;;;;;;;;;21.50;99.90;;;;;;4976239;28;19930;-87
2022/10/29 12:52:41;;;;;;;;;;;22.60;99.90;;;;;;4975753;28;19926;-87
2022/10/29 12:55:10;;;;;;;;;;;21.50;99.90;;;;;;4976238;28;20378;-89
2022/10/29 12:57:37;;;;;;;;;;;21.00;99.90;;;;;;4976291;28;19933;-87
2022/10/29 13:00:22;;;;;;;;;;;21.50;99.90;;;;;;4976040;28;19934;-87
2022/10/29 13:02:50;;;;;;;;;;;21.50;99.90;;;;;;4975783;28;20374;-87
2022/10/29 13:05:19;;;;;;;;;;;21.50;99.90;;;;;;4976097;28;20286;-87
2022/10/29 13:08:04;;;;;;;;;;;21.50;99.90;;;;;;4975975;28;19926;-87
2022/10/29 13:10:55;;;;;;;;;;;21.50;99.90;;;;;;4975477;28;19926;-87
2022/10/29 13:13:32;;;;;;;;;;;21.50;99.90;;;;;;4960924;28;19973;-87
2022/10/29 13:16:00;;;;;;;;;;;21.50;99.90;;;;;;4976829;28;19926;-87
2022/10/29 13:18:28;;;;;;;;;;;21.50;99.90;;;;;;4975442;28;20370;-87
2022/10/29 13:20:56;;;;;;;;;;;20.80;99.90;;;;;;4975899;28;19926;-87
2022/10/29 13:23:33;;;;;;;;;;;21.50;99.90;;;;;;4976597;28;19937;-87
2022/10/29 13:26:01;;;;;;;;;;;21.50;99.90;;;;;;4975778;28;20327;-87
2022/10/29 13:28:46;;;;;;;;;;;21.50;99.90;;;;;;4975313;28;19933;-87
2022/10/29 13:31:31;;;;;;;;;;;21.50;99.90;;;;;;4975622;28;19980;-87
2022/10/29 13:33:58;;;;;;;;;;;21.50;99.90;;;;;;4975648;28;19926;-87
2022/10/29 13:36:37;;;;;;;;;;;21.50;99.90;;;;;;4975373;28;20398;-87
2022/10/29 13:39:17;;;;;;;;;;;21.50;99.90;;;;;;4975483;28;19926;-87
2022/10/29 13:41:49;;;;;;;;;;;21.50;99.90;;;;;;4975599;28;19926;-87
2022/10/29 13:44:17;;;;;;;;;;;21.50;99.90;;;;;;4975550;28;19926;-87
2022/10/29 13:46:46;;;;;;;;;;;21.60;99.90;;;;;;4975495;28;19926;-87
2022/10/29 13:49:15;;;;;;;;;;;21.50;99.90;;;;;;4975440;28;19937;-87
2022/10/29 13:51:49;;;;;;;;;;;21.50;99.90;;;;;;4975559;28;19933;-87
2022/10/29 13:54:17;;;;;;;;;;;21.50;99.90;;;;;;4975471;28;19981;-87
2022/10/29 13:56:46;;;;;;;;;;;21.50;99.90;;;;;;4975134;28;20405;-87
2022/10/29 13:59:17;;;;;;;;;;;21.50;99.90;;;;;;4974982;28;19937;-87
2022/10/29 14:01:51;;;;;;;;;;;22.20;99.90;;;;;;4975159;28;19933;-87
2022/10/29 14:04:22;;;;;;;;;;;21.40;99.90;;;;;;4979260;28;19926;-87
2022/10/29 14:06:51;;;;;;;;;;;22.20;99.90;;;;;;4979152;28;19926;-87
2022/10/29 14:09:20;;;;;;;;;;;21.50;99.90;;;;;;4979431;28;19932;-87
2022/10/29 14:11:52;;;;;;;;;;;21.50;99.90;;;;;;4979459;28;20386;-87
2022/10/29 14:14:23;;;;;;;;;;;21.50;99.90;;;;;;4979264;28;19937;-87
2022/10/29 14:16:50;;;;;;;;;;;21.30;99.90;;;;;;4978906;28;20374;-87
2022/10/29 14:19:19;;;;;;;;;;;22.60;99.90;;;;;;4979059;28;19933;-87
2022/10/29 14:21:46;;;;;;;;;;;22.20;99.90;;;;;;4979318;28;20289;-87
2022/10/29 14:24:15;;;;;;;;;;;21.50;99.90;;;;;;4979416;28;19930;-87
2022/10/29 14:26:43;;;;;;;;;;;21.50;99.90;;;;;;4979016;28;19926;-87
2022/10/29 14:29:13;;;;;;;;;;;21.50;99.90;;;;;;4978914;28;20279;-87
2022/10/29 14:31:40;;;;;;;;;;;21.80;99.90;;;;;;4978548;28;20393;-87
2022/10/29 14:34:21;;;;;;;;;;;21.50;99.90;;;;;;4978888;28;20267;-87
2022/10/29 14:36:48;;;;;;;;;;;21.50;99.90;;;;;;4978963;28;20294;-87
2022/10/29 14:39:20;;;;;;;;;;;20.80;99.90;;;;;;4978719;28;20045;-87
2022/10/29 14:41:49;;;;;;;;;;;21.60;99.90;;;;;;4978774;28;19933;-87
2022/10/29 14:44:17;;;;;;;;;;;21.50;99.90;;;;;;4978776;28;19948;-87
2022/10/29 14:46:50;;;;;;;;;;;21.20;99.90;;;;;;4978553;28;20407;-87
2022/10/29 14:49:18;;;;;;;;;;;21.60;99.90;;;;;;4978569;28;19927;-87
2022/10/29 14:51:48;;;;;;;;;;;21.50;99.90;;;;;;4978295;28;20029;-87
2022/10/29 14:54:19;;;;;;;;;;;21.50;99.90;;;;;;4978231;28;19926;-87
2022/10/29 14:56:48;;;;;;;;;;;21.50;99.90;;;;;;4978478;28;19932;-87
2022/10/29 14:59:17;;;;;;;;;;;21.50;99.90;;;;;;4978279;28;19926;-87
2022/10/29 15:01:44;;;;;;;;;;;21.60;99.90;;;;;;4977978;28;19926;-87
2022/10/29 15:04:17;;;;;;;;;;;21.00;99.90;;;;;;4978267;28;19926;-87
2022/10/29 15:06:44;;;;;;;;;;;21.40;99.90;;;;;;4978286;28;19926;-87
2022/10/29 15:09:14;;;;;;;;;;;21.40;99.90;;;;;;4977867;28;20386;-87
2022/10/29 15:11:47;;;;;;;;;;;21.50;99.90;;;;;;4977795;28;19927;-87
2022/10/29 15:14:36;;;;;;;;;;;21.50;99.90;;;;;;4978616;28;19926;-86
2022/10/29 15:17:08;;;;;;;;;;;21.50;99.90;;;;;;4980518;28;20393;-84
2022/10/29 15:19:35;;;;;;;;;;;21.50;99.90;;;;;;4985160;28;19934;-84
2022/10/29 15:22:07;;;;;;;;;;;21.40;99.90;;;;;;4984551;28;20460;-85
2022/10/29 15:24:33;;;;;;;;;;;22.30;99.90;;;;;;4979606;28;19930;-84
2022/10/29 15:27:03;;;;;;;;;;;21.40;99.90;;;;;;4979384;28;19926;-85
2022/10/29 15:29:33;;;;;;;;;;;21.50;99.90;;;;;;4978265;28;19926;-85
2022/10/29 15:31:59;;;;;;;;;;;21.50;99.90;;;;;;4978766;28;19933;-85
2022/10/29 15:34:28;;;;;;;;;;;21.30;99.90;;;;;;4978983;28;19926;-85
2022/10/29 15:36:56;;;;;;;;;;;21.50;99.90;;;;;;4979998;28;20392;-85
2022/10/29 15:39:25;;;;;;;;;;;21.60;99.90;;;;;;4979585;28;19926;-85
2022/10/29 15:41:52;;;;;;;;;;;21.50;99.90;;;;;;4977778;28;20400;-85
2022/10/29 15:44:28;;;;;;;;;;;21.40;99.90;;;;;;4978551;28;19938;-85
2022/10/29 15:46:57;;;;;;;;;;;21.50;99.90;;;;;;4977466;28;19926;-86
2022/10/29 15:49:24;;;;;;;;;;;21.50;99.90;;;;;;4977313;28;19930;-86
2022/10/29 15:51:51;;;;;;;;;;;21.40;99.90;;;;;;4976975;28;19933;-86
2022/10/29 15:54:17;;;;;;;;;;;21.50;99.90;;;;;;4977397;28;19926;-86
2022/10/29 15:56:44;;;;;;;;;;;21.50;99.90;;;;;;4977046;28;19930;-86
2022/10/29 15:59:11;;;;;;;;;;;22.40;99.90;;;;;;4977225;28;19926;-86
2022/10/29 16:01:39;;;;;;;;;;;22.60;99.90;;;;;;4978241;28;20383;-85
2022/10/29 16:04:06;;;;;;;;;;;21.40;99.90;;;;;;4978344;28;19926;-85
2022/10/29 16:06:33;;;;;;;;;;;21.40;99.90;;;;;;4977848;28;19926;-85
2022/10/29 16:09:00;;;;;;;;;;;21.40;99.90;;;;;;4982327;28;19933;-84
2022/10/29 16:11:28;;;;;;;;;;;21.50;99.90;;;;;;4981724;28;20271;-86
2022/10/29 16:13:55;;;;;;;;;;;21.40;99.90;;;;;;4980625;28;19926;-86
2022/10/29 16:16:23;;;;;;;;;;;21.30;99.90;;;;;;4981825;28;19977;-86
2022/10/29 16:18:51;;;;;;;;;;;21.40;99.90;;;;;;4982062;28;19926;-84
2022/10/29 16:21:19;;;;;;;;;;;21.40;99.90;;;;;;4989590;28;19933;-85
2022/10/29 16:23:45;;;;;;;;;;;22.30;99.90;;;;;;4997750;28;19926;-86
2022/10/29 16:26:15;;;;;;;;;;;21.10;99.90;;;;;;4993608;28;19926;-85
2022/10/29 16:28:42;;;;;;;;;;;21.40;99.90;;;;;;4984019;28;19926;-85
2022/10/29 16:31:14;;;;;;;;;;;21.40;99.90;;;;;;4979458;28;20293;-85
2022/10/29 16:33:41;;;;;;;;;;;21.50;99.90;;;;;;4978865;28;19926;-88
2022/10/29 16:36:09;;;;;;;;;;;21.40;99.90;;;;;;4977524;28;19926;-87
2022/10/29 16:38:36;;;;;;;;;;;21.40;99.90;;;;;;4976262;28;20382;-87
2022/10/29 16:41:03;;;;;;;;;;;22.10;99.90;;;;;;4976476;28;19926;-87
2022/10/29 16:43:29;;;;;;;;;;;21.60;99.90;;;;;;4976569;28;20282;-87
2022/10/29 16:45:56;;;;;;;;;;;21.60;99.90;;;;;;4976241;28;19933;-88
2022/10/29 16:48:22;;;;;;;;;;;22.00;99.90;;;;;;4976316;28;19926;-88
2022/10/29 16:50:49;;;;;;;;;;;21.60;99.90;;;;;;4976049;28;20397;-87
2022/10/29 16:53:17;;;;;;;;;;;21.30;99.90;;;;;;4977709;28;19926;-86
2022/10/29 16:55:44;;;;;;;;;;;21.60;99.90;;;;;;4979493;28;20017;-87
2022/10/29 16:58:12;;;;;;;;;;;21.60;99.90;;;;;;4976894;28;20305;-88
2022/10/29 17:00:38;;;;;;;;;;;21.60;99.90;;;;;;4977287;28;19958;-88
2022/10/29 17:03:05;;;;;;;;;;;21.70;99.90;;;;;;4978758;28;19926;-85
2022/10/29 17:05:34;;;;;;;;;;;21.60;99.90;;;;;;4979842;28;19926;-85
2022/10/29 17:08:01;;;;;;;;;;;21.60;99.90;;;;;;4978167;28;19933;-84
2022/10/29 17:10:30;;;;;;;;;;;21.60;99.90;;;;;;4979005;28;19925;-85
2022/10/29 17:12:57;;;;;;;;;;;22.00;99.90;;;;;;4978166;28;19926;-85
2022/10/29 17:15:23;;;;;;;;;;;21.60;99.90;;;;;;4977868;28;20366;-85
2022/10/29 17:17:50;;;;;;;;;;;21.60;99.90;;;;;;4977827;28;20401;-85
2022/10/29 17:20:17;;;;;;;;;;;21.70;99.90;;;;;;4978491;28;19934;-85
2022/10/29 17:22:43;;;;;;;;;;;21.70;99.90;;;;;;4981426;28;19985;-85
2022/10/29 17:25:11;;;;;;;;;;;21.90;99.90;;;;;;4982488;28;19926;-84
2022/10/29 17:27:40;;;;;;;;;;;21.70;99.90;;;;;;4982226;28;19941;-85
2022/10/29 17:30:08;;;;;;;;;;;21.60;99.90;;;;;;4980648;28;19982;-84
2022/10/29 17:32:35;;;;;;;;;;;21.70;99.90;;;;;;4981994;28;19933;-85
2022/10/29 17:35:02;;;;;;;;;;;21.60;99.90;;;;;;4981746;28;19961;-85
2022/10/29 17:37:30;;;;;;;;;;;21.70;99.90;;;;;;4981336;28;20404;-86
2022/10/29 17:39:57;;;;;;;;;;;21.70;99.90;;;;;;4982200;28;19948;-85
2022/10/29 17:42:25;;;;;;;;;;;21.70;99.90;;;;;;4982555;28;19977;-85
2022/10/29 17:44:54;;;;;;;;;;;21.60;99.90;;;;;;4981178;28;19926;-85
2022/10/29 17:47:21;;;;;;;;;;;21.60;99.90;;;;;;4981922;28;19926;-85
2022/10/29 17:49:50;;;;;;;;;;;21.60;99.90;;;;;;4980952;28;20447;-86
2022/10/29 17:52:18;;;;;;;;;;;21.60;99.90;;;;;;4981810;28;20009;-86
2022/10/29 17:54:45;;;;;;;;;;;21.70;99.90;;;;;;4983621;28;19929;-85
2022/10/29 17:57:12;;;;;;;;;;;21.60;99.90;;;;;;4981368;28;19926;-86
2022/10/29 17:59:39;;;;;;;;;;;21.60;99.90;;;;;;4982151;28;19926;-85
2022/10/29 18:02:08;;;;;;;;;;;21.70;99.90;;;;;;4979875;28;20370;-86
2022/10/29 18:04:35;;;;;;;;;;;21.70;99.90;;;;;;4979535;28;19926;-85
2022/10/29 18:07:01;;;;;;;;;;;21.70;99.90;;;;;;4978498;28;19933;-85
2022/10/29 18:09:28;;;;;;;;;;;21.70;99.90;;;;;;4978075;28;19933;-83
2022/10/29 18:11:54;;;;;;;;;;;21.60;99.90;;;;;;4978392;28;19930;-85
2022/10/29 18:14:21;;;;;;;;;;;21.60;99.90;;;;;;4977486;28;19926;-86
2022/10/29 18:16:47;;;;;;;;;;;21.50;99.90;;;;;;4975124;28;19926;-87
2022/10/29 18:19:16;;;;;;;;;;;21.70;99.90;;;;;;4974909;28;20386;-86
2022/10/29 18:21:42;;;;;;;;;;;22.40;99.90;;;;;;4975173;28;20025;-86
2022/10/29 18:24:09;;;;;;;;;;;22.60;99.90;;;;;;4975197;28;19926;-87
2022/10/29 18:26:36;;;;;;;;;;;21.60;99.90;;;;;;4975179;28;19949;-86
2022/10/29 18:29:04;;;;;;;;;;;22.40;99.90;;;;;;4975488;28;19926;-86
2022/10/29 18:31:31;;;;;;;;;;;21.70;99.90;;;;;;4978357;28;20017;-84
2022/10/29 18:33:58;;;;;;;;;;;21.60;99.90;;;;;;4977747;28;20390;-84
2022/10/29 18:36:26;;;;;;;;;;;21.60;99.90;;;;;;4978917;28;19933;-84
2022/10/29 18:38:54;;;;;;;;;;;21.60;99.90;;;;;;4978378;28;19926;-84
2022/10/29 18:41:20;;;;;;;;;;;21.60;99.90;;;;;;4978536;28;19934;-84
2022/10/29 18:43:47;;;;;;;;;;;21.40;99.90;;;;;;4978950;28;19933;-84
2022/10/29 18:46:14;;;;;;;;;;;21.60;99.90;;;;;;4980162;28;19926;-84
2022/10/29 18:48:42;;;;;;;;;;;21.60;99.90;;;;;;4978223;28;20299;-84
2022/10/29 18:51:09;;;;;;;;;;;21.60;99.90;;;;;;4982299;28;19933;-84
2022/10/29 18:53:38;;;;;;;;;;;21.50;99.90;;;;;;4982214;28;19926;-84
2022/10/29 18:56:08;;;;;;;;;;;21.60;99.90;;;;;;4982400;28;19937;-84
2022/10/29 18:58:34;;;;;;;;;;;21.60;99.90;;;;;;4982116;28;19930;-84
2022/10/29 19:01:05;;;;;;;;;;;21.60;99.90;;;;;;4982288;28;19926;-84
2022/10/29 19:03:31;;;;;;;;;;;21.60;99.90;;;;;;4982240;28;19926;-84
2022/10/29 19:06:00;;;;;;;;;;;21.60;99.90;;;;;;4982750;28;19932;-84
2022/10/29 19:08:26;;;;;;;;;;;21.60;99.90;;;;;;4982811;28;19933;-84
2022/10/29 19:10:54;;;;;;;;;;;22.00;99.90;;;;;;4982554;28;20292;-84
2022/10/29 19:13:21;;;;;;;;;;;22.20;99.90;;;;;;4982475;28;19949;-85
2022/10/29 19:15:47;;;;;;;;;;;21.50;99.90;;;;;;4981047;28;19926;-86
2022/10/29 19:18:14;;;;;;;;;;;21.50;99.90;;;;;;4978520;28;19930;-85
2022/10/29 19:20:41;;;;;;;;;;;21.50;99.90;;;;;;4978723;28;19933;-86
2022/10/29 19:23:07;;;;;;;;;;;21.50;99.90;;;;;;4978229;28;19927;-85
2022/10/29 19:25:38;;;;;;;;;;;21.50;99.90;;;;;;4978588;28;19926;-85
2022/10/29 19:28:06;;;;;;;;;;;21.40;99.90;;;;;;4981704;28;19937;-84
2022/10/29 19:30:32;;;;;;;;;;;21.60;99.90;;;;;;4980167;28;19933;-85
2022/10/29 19:32:59;;;;;;;;;;;21.60;99.90;;;;;;4978004;28;20386;-85
2022/10/29 19:35:25;;;;;;;;;;;21.60;99.90;;;;;;4978170;28;20045;-85